Time;durP1;ratioP1;P1;durP2;ratioP2;P2;SDS_P1;SDS_P2;PMS_P1;PMS_P2;Temp;Humidity;BMP_temperature;BMP_pressure;BME280_temperature;BME280_humidity;BME280_pressure;Samples;Min_cycle;Max_cycle;Signal;HPM_P1;HPM_P2
2023/01/17 00:02:06;;;;;;;2.00;1.63;;;5.90;99.90;;;;;;5033252;28;20445;-58
2023/01/17 00:11:01;;;;;;;2.05;1.77;;;6.10;99.90;;;;;;5014093;28;20033;-54
2023/01/17 00:13:47;;;;;;;2.72;1.77;;;5.90;99.90;;;;;;5020876;28;20057;-52
2023/01/17 00:16:33;;;;;;;3.35;1.90;;;5.90;99.90;;;;;;4998276;28;20037;-52
2023/01/17 01:34:47;;;;;;;0.93;0.85;;;5.90;99.90;;;;;;5012194;28;20490;-51
2023/01/17 01:37:33;;;;;;;0.63;0.63;;;5.90;99.90;;;;;;5010942;28;20441;-52
2023/01/17 01:40:19;;;;;;;0.70;0.70;;;5.80;99.90;;;;;;5012166;28;20505;-51
2023/01/17 01:43:09;;;;;;;0.68;0.68;;;5.80;99.90;;;;;;5011955;28;20494;-52
2023/01/17 01:45:57;;;;;;;0.70;0.70;;;5.70;99.90;;;;;;5012882;28;20104;-48
2023/01/17 01:49:16;;;;;;;0.90;0.90;;;5.60;99.90;;;;;;5022052;28;20025;-53
2023/01/17 01:52:04;;;;;;;0.70;0.70;;;5.60;99.90;;;;;;5003801;28;20498;-51
2023/01/17 01:55:22;;;;;;;0.65;0.65;;;5.50;99.90;;;;;;5032235;28;20033;-49
2023/01/17 01:58:17;;;;;;;0.90;0.90;;;5.50;99.90;;;;;;5009047;28;20065;-48
2023/01/17 02:01:06;;;;;;;0.77;0.77;;;5.50;99.90;;;;;;5012006;28;20040;-53
2023/01/17 02:03:52;;;;;;;0.90;0.90;;;5.40;99.90;;;;;;5017021;28;20056;-53
2023/01/17 02:06:49;;;;;;;0.90;0.90;;;5.40;99.90;;;;;;5030357;28;20047;-52
2023/01/17 02:09:35;;;;;;;0.80;0.80;;;5.30;99.90;;;;;;5002331;28;20121;-54
2023/01/17 02:12:22;;;;;;;0.88;0.80;;;5.30;99.90;;;;;;5003202;28;20092;-55
2023/01/17 02:15:09;;;;;;;0.95;0.95;;;5.30;99.90;;;;;;5026505;28;20083;-49
2023/01/17 02:18:16;;;;;;;1.02;1.02;;;5.30;99.90;;;;;;5012845;28;20074;-51
2023/01/17 02:21:12;;;;;;;0.95;0.90;;;5.20;99.90;;;;;;5024180;28;20052;-48
2023/01/17 02:24:16;;;;;;;1.27;1.20;;;5.10;99.90;;;;;;5031239;28;20385;-51
2023/01/17 02:27:22;;;;;;;1.40;1.30;;;5.10;99.90;;;;;;5030167;28;20103;-50
2023/01/17 02:30:29;;;;;;;1.80;1.70;;;5.10;99.90;;;;;;5029834;28;20108;-51
2023/01/17 02:33:18;;;;;;;1.70;1.60;;;5.00;99.90;;;;;;5030293;28;20033;-49
2023/01/17 02:36:29;;;;;;;2.00;1.90;;;4.90;99.90;;;;;;5017547;28;20068;-50
2023/01/17 02:39:23;;;;;;;1.92;1.83;;;4.80;99.90;;;;;;5015483;28;20013;-49
2023/01/17 02:42:15;;;;;;;2.30;2.10;;;4.80;99.90;;;;;;5030610;28;20428;-51
2023/01/17 02:45:02;;;;;;;2.10;1.90;;;4.70;99.90;;;;;;5019665;28;20253;-49
2023/01/17 02:47:47;;;;;;;2.30;2.10;;;4.70;99.90;;;;;;5026066;28;20033;-50
2023/01/17 02:50:59;;;;;;;2.08;1.98;;;4.60;99.90;;;;;;5029913;28;20014;-48
2023/01/17 02:54:04;;;;;;;2.60;2.25;;;4.80;99.90;;;;;;5019106;28;20661;-52
2023/01/17 02:57:28;;;;;;;2.22;2.08;;;4.80;99.90;;;;;;5010220;28;20033;-51
2023/01/17 03:00:32;;;;;;;3.38;2.42;;;4.80;99.90;;;;;;4992015;28;20507;-53
2023/01/17 03:03:46;;;;;;;3.78;2.20;;;4.80;99.90;;;;;;5017395;28;20037;-54
2023/01/17 03:06:54;;;;;;;2.75;2.50;;;4.80;99.90;;;;;;5011476;28;20092;-55
2023/01/17 03:09:44;;;;;;;2.40;2.20;;;4.80;99.90;;;;;;5011477;28;20585;-53
2023/01/17 03:12:35;;;;;;;2.63;2.20;;;4.80;99.90;;;;;;4998238;28;20057;-50
2023/01/17 03:15:21;;;;;;;2.10;1.90;;;4.80;99.90;;;;;;5035875;28;20505;-50
2023/01/17 03:18:13;;;;;;;1.63;1.40;;;4.80;99.90;;;;;;5000811;28;20037;-51
2023/01/17 03:21:00;;;;;;;2.20;2.00;;;4.90;99.90;;;;;;5030874;28;20397;-50
2023/01/17 03:23:46;;;;;;;1.83;1.70;;;4.80;99.90;;;;;;5003659;28;20021;-52
2023/01/17 03:26:32;;;;;;;1.60;1.50;;;4.80;99.90;;;;;;5027616;28;20037;-50
2023/01/17 03:29:18;;;;;;;1.70;1.60;;;4.90;99.90;;;;;;5011714;28;20034;-45
2023/01/17 03:32:04;;;;;;;1.60;1.50;;;4.90;99.90;;;;;;5003247;28;20038;-53
2023/01/17 03:34:50;;;;;;;2.00;1.88;;;4.80;99.90;;;;;;5002748;28;20540;-54
2023/01/17 03:37:36;;;;;;;2.42;1.80;;;4.80;99.90;;;;;;5030084;28;20037;-53
2023/01/17 03:40:22;;;;;;;1.25;1.23;;;4.80;99.90;;;;;;5011840;28;20030;-48
2023/01/17 03:43:08;;;;;;;1.73;1.33;;;4.90;99.90;;;;;;5024296;28;20063;-46
2023/01/17 03:46:04;;;;;;;1.35;1.25;;;4.90;99.90;;;;;;5030297;28;20037;-48
2023/01/17 03:48:51;;;;;;;1.35;1.25;;;4.80;99.90;;;;;;5024748;28;20401;-47
2023/01/17 03:51:37;;;;;;;1.90;1.60;;;4.90;99.90;;;;;;5012019;28;20434;-53
2023/01/17 03:54:23;;;;;;;1.80;1.33;;;4.80;99.90;;;;;;5015527;28;20029;-49
2023/01/17 03:57:09;;;;;;;1.70;1.60;;;4.80;99.90;;;;;;5021459;28;20475;-51
2023/01/17 03:59:55;;;;;;;1.65;1.40;;;4.80;99.90;;;;;;5004277;28;20037;-46
2023/01/17 04:02:40;;;;;;;2.42;1.75;;;4.80;99.90;;;;;;5033504;28;20030;-53
2023/01/17 04:05:26;;;;;;;3.92;1.90;;;4.70;99.90;;;;;;5024561;28;20026;-52
2023/01/17 04:08:12;;;;;;;1.75;1.65;;;4.70;99.90;;;;;;5014077;28;20033;-49
2023/01/17 04:10:58;;;;;;;2.10;1.90;;;4.70;99.90;;;;;;5033591;28;20086;-52
2023/01/17 04:13:44;;;;;;;1.80;1.70;;;4.70;99.90;;;;;;5004613;28;20029;-53
2023/01/17 04:16:31;;;;;;;2.60;1.95;;;4.70;99.90;;;;;;5013726;28;20084;-55
2023/01/17 04:19:18;;;;;;;2.05;1.90;;;4.70;99.90;;;;;;5001366;28;20088;-49
2023/01/17 04:22:03;;;;;;;2.33;1.90;;;4.70;99.90;;;;;;5016124;28;20026;-46
2023/01/17 04:24:49;;;;;;;2.20;2.00;;;4.70;99.90;;;;;;5015541;28;20037;-47
2023/01/17 04:27:35;;;;;;;2.53;2.10;;;4.70;99.90;;;;;;5015202;28;20037;-50
2023/01/17 04:30:21;;;;;;;2.30;2.10;;;4.70;99.90;;;;;;5034687;28;20116;-46
2023/01/17 04:33:07;;;;;;;2.40;2.17;;;4.70;99.90;;;;;;5013099;28;20036;-49
2023/01/17 04:35:53;;;;;;;4.68;2.78;;;4.70;99.90;;;;;;5030232;28;20063;-47
2023/01/17 04:38:39;;;;;;;2.50;2.30;;;4.70;99.90;;;;;;5031683;28;20456;-47
2023/01/17 04:41:25;;;;;;;2.35;2.15;;;4.70;99.90;;;;;;5020930;28;20070;-47
2023/01/17 04:44:11;;;;;;;2.75;2.33;;;4.70;99.90;;;;;;5013743;28;20144;-48
2023/01/17 04:46:57;;;;;;;2.50;2.28;;;4.60;99.90;;;;;;5018273;28;20038;-49
2023/01/17 04:49:43;;;;;;;2.70;2.30;;;4.60;99.90;;;;;;5031954;28;20104;-52
2023/01/17 04:52:29;;;;;;;2.50;2.15;;;4.60;99.90;;;;;;5022461;28;20097;-50
2023/01/17 04:55:15;;;;;;;3.42;2.40;;;4.70;99.90;;;;;;5012764;28;20514;-55
2023/01/17 04:58:01;;;;;;;3.55;2.50;;;4.70;99.90;;;;;;4998173;28;20037;-50
2023/01/17 05:00:49;;;;;;;2.83;2.40;;;4.70;99.90;;;;;;5012210;28;20036;-47
2023/01/17 05:03:35;;;;;;;3.42;2.30;;;4.70;99.90;;;;;;5013456;28;20029;-53
2023/01/17 05:06:21;;;;;;;3.65;2.55;;;4.70;99.90;;;;;;4999094;28;20036;-53
2023/01/17 05:09:07;;;;;;;3.88;2.40;;;4.80;99.90;;;;;;5019481;28;20037;-51
2023/01/17 05:11:54;;;;;;;3.85;2.53;;;4.70;99.90;;;;;;5016888;28;20038;-51
2023/01/17 05:14:40;;;;;;;2.97;2.28;;;4.80;99.90;;;;;;5028302;28;20030;-50
2023/01/17 05:17:26;;;;;;;4.50;2.67;;;4.80;99.90;;;;;;5032518;28;20021;-51
2023/01/17 05:20:12;;;;;;;2.58;2.25;;;4.80;99.90;;;;;;5027809;28;20022;-54
2023/01/17 05:22:58;;;;;;;3.65;2.28;;;4.80;99.90;;;;;;5012992;28;20109;-51
2023/01/17 05:25:44;;;;;;;3.15;2.30;;;4.80;99.90;;;;;;5012382;28;20022;-53
2023/01/17 05:28:29;;;;;;;3.85;2.30;;;4.80;99.90;;;;;;5003524;28;20088;-52
2023/01/17 05:31:15;;;;;;;2.78;2.20;;;4.80;99.90;;;;;;5021322;28;20060;-49
2023/01/17 05:34:02;;;;;;;2.40;2.13;;;4.70;99.90;;;;;;5032667;28;20026;-52
2023/01/17 05:36:48;;;;;;;3.65;2.38;;;4.70;99.90;;;;;;5019292;28;20108;-52
2023/01/17 05:39:34;;;;;;;2.58;2.33;;;4.60;99.90;;;;;;5012786;28;20034;-49
2023/01/17 05:42:19;;;;;;;3.65;2.50;;;4.70;99.90;;;;;;5023396;28;20095;-50
2023/01/17 05:45:06;;;;;;;2.88;2.40;;;4.70;99.90;;;;;;5010990;28;20487;-49
2023/01/17 05:47:54;;;;;;;3.67;2.50;;;4.70;99.90;;;;;;5011837;28;20036;-53
2023/01/17 05:50:40;;;;;;;4.35;2.60;;;4.60;99.90;;;;;;5015447;28;20064;-51
2023/01/17 05:53:26;;;;;;;2.95;2.30;;;4.60;99.90;;;;;;5006733;28;20034;-49
2023/01/17 05:56:12;;;;;;;4.47;2.40;;;4.60;99.90;;;;;;5023231;28;20041;-49
2023/01/17 05:58:59;;;;;;;5.97;2.78;;;4.50;99.90;;;;;;5018396;28;20034;-52
2023/01/17 06:01:45;;;;;;;4.03;2.70;;;4.60;99.90;;;;;;5007853;28;20014;-53
2023/01/17 06:04:31;;;;;;;3.17;2.60;;;4.60;99.90;;;;;;5011448;28;20069;-53
2023/01/17 06:07:17;;;;;;;4.75;2.47;;;4.50;99.90;;;;;;5012604;28;20116;-53
2023/01/17 06:10:04;;;;;;;2.97;2.22;;;4.50;99.90;;;;;;5027634;28;20452;-51
2023/01/17 06:13:05;;;;;;;3.05;2.28;;;4.50;99.90;;;;;;5010513;28;20038;-53
2023/01/17 06:15:51;;;;;;;2.83;2.50;;;4.50;99.90;;;;;;5011675;28;20029;-49
2023/01/17 06:18:37;;;;;;;3.20;2.30;;;4.50;99.90;;;;;;5014320;28;20084;-53
2023/01/17 06:21:23;;;;;;;3.47;2.60;;;4.50;99.90;;;;;;5010412;28;20101;-52
2023/01/17 06:24:09;;;;;;;2.72;2.40;;;4.50;99.90;;;;;;5011334;28;20026;-50
2023/01/17 06:26:55;;;;;;;3.65;2.22;;;4.40;99.90;;;;;;4997113;28;20030;-52
2023/01/17 06:29:41;;;;;;;2.47;1.98;;;4.40;99.90;;;;;;5016826;28;20029;-50
2023/01/17 06:32:27;;;;;;;5.07;2.55;;;4.40;99.90;;;;;;5017954;28;20057;-56
2023/01/17 06:35:13;;;;;;;2.72;2.30;;;4.40;99.90;;;;;;5020227;28;20021;-55
2023/01/17 06:37:59;;;;;;;3.80;2.65;;;4.30;99.90;;;;;;5010077;28;20033;-54
2023/01/17 06:40:45;;;;;;;2.75;2.20;;;4.30;99.90;;;;;;5006517;28;20494;-54
2023/01/17 06:43:32;;;;;;;4.53;2.35;;;4.30;99.90;;;;;;5016483;28;20116;-49
2023/01/17 06:46:18;;;;;;;5.07;2.40;;;4.30;99.90;;;;;;5019182;28;20050;-50
2023/01/17 06:49:04;;;;;;;2.45;2.00;;;4.30;99.90;;;;;;5010551;28;20410;-54
2023/01/17 06:51:50;;;;;;;3.33;2.42;;;4.30;99.90;;;;;;5011275;28;20048;-51
2023/01/17 06:54:36;;;;;;;3.08;2.40;;;4.30;99.90;;;;;;5011000;28;20036;-59
2023/01/17 06:57:22;;;;;;;4.13;2.50;;;4.20;99.90;;;;;;5019685;28;20025;-48
2023/01/17 07:00:09;;;;;;;4.45;2.20;;;4.30;99.90;;;;;;5029787;28;20513;-48
2023/01/17 07:02:55;;;;;;;3.25;2.30;;;4.30;99.90;;;;;;4991753;28;20506;-50
2023/01/17 07:05:41;;;;;;;4.53;2.45;;;4.20;99.90;;;;;;4991773;28;20026;-50
2023/01/17 07:08:27;;;;;;;3.45;2.30;;;4.20;99.90;;;;;;4992346;28;20147;-51
2023/01/17 07:11:13;;;;;;;4.15;2.50;;;4.20;99.90;;;;;;4992415;28;20022;-50
2023/01/17 07:13:59;;;;;;;3.45;2.17;;;4.10;99.90;;;;;;4992015;28;20430;-52
2023/01/17 07:16:47;;;;;;;3.05;2.30;;;4.10;99.90;;;;;;4994169;28;20031;-53
2023/01/17 07:19:33;;;;;;;3.03;2.72;;;4.10;99.90;;;;;;5031183;28;20490;-48
2023/01/17 07:22:19;;;;;;;3.63;2.22;;;4.10;99.90;;;;;;4991623;28;20046;-47
2023/01/17 07:25:06;;;;;;;3.72;2.25;;;4.10;99.90;;;;;;4993687;28;20030;-47
2023/01/17 07:30:31;;;;;;;3.60;2.40;;;4.00;99.90;;;;;;5019336;28;20414;-56
2023/01/17 07:33:18;;;;;;;3.80;2.28;;;4.00;99.90;;;;;;5019437;28;20030;-49
2023/01/17 07:36:06;;;;;;;2.60;2.20;;;3.90;99.90;;;;;;5030175;28;20477;-49
2023/01/17 07:38:52;;;;;;;4.38;2.45;;;3.90;99.90;;;;;;5024223;28;20028;-49
2023/01/17 07:41:40;;;;;;;3.30;2.30;;;3.90;99.90;;;;;;5012476;28;20026;-48
2023/01/17 07:44:25;;;;;;;2.67;2.10;;;3.90;99.90;;;;;;5013318;28;20041;-52
2023/01/17 07:47:11;;;;;;;3.90;2.53;;;3.80;99.90;;;;;;5013576;28;20041;-56
2023/01/17 07:49:57;;;;;;;3.30;2.40;;;3.90;99.90;;;;;;5014222;28;20118;-54
2023/01/17 07:52:48;;;;;;;2.85;2.10;;;3.90;99.90;;;;;;5015086;28;20061;-53
2023/01/17 07:55:34;;;;;;;3.10;2.47;;;3.90;99.90;;;;;;4999413;28;20113;-48
2023/01/17 07:58:21;;;;;;;3.78;2.30;;;3.90;99.90;;;;;;5012744;28;20037;-52
2023/01/17 08:01:10;;;;;;;3.03;2.40;;;3.80;99.90;;;;;;5009540;28;20066;-46
2023/01/17 08:03:56;;;;;;;2.67;2.13;;;3.80;99.90;;;;;;5020843;28;20543;-50
2023/01/17 08:06:46;;;;;;;2.75;2.00;;;3.90;99.90;;;;;;5014210;28;20080;-52
2023/01/17 08:09:32;;;;;;;3.15;2.30;;;3.80;99.90;;;;;;5013228;28;20030;-45
2023/01/17 08:12:18;;;;;;;3.25;2.55;;;3.90;99.90;;;;;;5013363;28;20030;-49
2023/01/17 08:15:05;;;;;;;3.88;2.40;;;3.90;99.90;;;;;;4996738;28;20037;-52
2023/01/17 08:17:56;;;;;;;2.70;2.20;;;3.90;99.90;;;;;;5008585;28;20044;-53
2023/01/17 08:20:43;;;;;;;2.47;2.25;;;3.90;99.90;;;;;;5026696;28;20041;-56
2023/01/17 08:23:32;;;;;;;4.07;2.40;;;3.90;99.90;;;;;;5021290;28;20022;-58
2023/01/17 08:26:20;;;;;;;5.43;2.95;;;4.00;99.90;;;;;;5014347;28;20041;-54
2023/01/17 08:29:07;;;;;;;3.08;2.00;;;4.00;99.90;;;;;;5014042;28;20099;-56
2023/01/17 08:31:53;;;;;;;3.17;2.40;;;4.00;99.90;;;;;;5015191;28;20029;-56
2023/01/17 08:34:40;;;;;;;3.17;2.30;;;3.90;99.90;;;;;;5014842;28;20037;-57
2023/01/17 08:37:26;;;;;;;3.92;2.40;;;4.00;99.90;;;;;;4999589;28;20391;-57
2023/01/17 08:40:15;;;;;;;4.15;2.42;;;4.00;99.90;;;;;;5013331;28;20057;-57
2023/01/17 08:43:02;;;;;;;3.28;2.20;;;4.00;99.90;;;;;;5000694;28;20026;-57
2023/01/17 08:45:49;;;;;;;2.65;2.20;;;4.10;99.90;;;;;;5027093;28;20112;-54
2023/01/17 08:48:35;;;;;;;3.65;2.53;;;4.10;99.90;;;;;;5019461;28;20022;-51
2023/01/17 08:51:23;;;;;;;3.88;2.40;;;4.10;99.90;;;;;;5017974;28;20032;-50
2023/01/17 08:54:11;;;;;;;3.03;2.42;;;4.10;99.90;;;;;;5000015;28;20026;-53
2023/01/17 08:56:57;;;;;;;2.97;2.20;;;4.10;99.90;;;;;;5031832;28;20029;-53
2023/01/17 08:59:43;;;;;;;5.93;2.65;;;4.20;99.90;;;;;;5032567;28;20524;-51
2023/01/17 09:02:29;;;;;;;5.88;2.88;;;4.30;99.90;;;;;;5035443;28;20040;-51
2023/01/17 09:05:15;;;;;;;4.03;2.50;;;4.30;99.90;;;;;;5012870;28;20053;-47
2023/01/17 09:08:01;;;;;;;3.30;2.63;;;4.40;99.90;;;;;;5018842;28;20029;-46
2023/01/17 09:10:47;;;;;;;4.18;2.60;;;4.30;99.90;;;;;;5023136;28;20022;-48
2023/01/17 09:13:33;;;;;;;3.10;2.53;;;4.30;99.90;;;;;;5022820;28;20030;-47
2023/01/17 09:16:19;;;;;;;3.47;2.65;;;4.20;99.90;;;;;;5012097;28;20041;-48
2023/01/17 09:19:05;;;;;;;4.38;2.70;;;4.20;99.90;;;;;;5022127;28;20056;-46
2023/01/17 09:21:51;;;;;;;3.63;2.70;;;4.20;99.90;;;;;;5032960;28;20375;-49
2023/01/17 09:24:38;;;;;;;2.85;2.47;;;4.20;99.90;;;;;;5032266;28;20053;-52
2023/01/17 09:27:24;;;;;;;4.32;2.70;;;4.20;99.90;;;;;;5004086;28;20029;-51
2023/01/17 09:30:10;;;;;;;3.08;2.33;;;4.30;99.90;;;;;;5016903;28;20033;-47
2023/01/17 09:32:56;;;;;;;3.83;2.42;;;4.30;99.90;;;;;;5020460;28;20025;-45
2023/01/17 09:35:43;;;;;;;3.38;2.38;;;4.20;99.90;;;;;;5023139;28;20030;-51
2023/01/17 09:38:30;;;;;;;3.13;2.40;;;4.10;99.90;;;;;;5018108;28;20062;-50
2023/01/17 09:41:22;;;;;;;2.83;1.98;;;4.10;99.90;;;;;;5016923;28;20029;-50
2023/01/17 09:44:43;;;;;;;3.97;2.58;;;4.30;99.90;;;;;;5018281;28;20105;-51
2023/01/17 09:47:40;;;;;;;2.85;2.10;;;4.30;99.90;;;;;;4985313;28;20118;-52
2023/01/17 09:50:42;;;;;;;2.80;2.20;;;4.50;99.90;;;;;;5018995;28;20030;-49
2023/01/17 09:53:33;;;;;;;2.40;2.00;;;4.40;99.90;;;;;;5018661;28;20018;-51
2023/01/17 09:56:28;;;;;;;5.10;2.40;;;4.50;99.90;;;;;;5022960;28;20033;-47
2023/01/17 09:59:32;;;;;;;3.08;2.40;;;4.60;99.90;;;;;;5018512;28;20166;-52
2023/01/17 10:03:02;;;;;;;3.13;2.40;;;4.50;99.90;;;;;;5020335;28;20080;-53
2023/01/17 10:06:00;;;;;;;3.38;2.15;;;4.60;99.90;;;;;;5020315;28;20044;-54
2023/01/17 10:09:07;;;;;;;4.65;2.40;;;4.40;99.90;;;;;;5013598;28;20394;-53
2023/01/17 10:12:32;;;;;;;3.40;2.65;;;4.50;99.90;;;;;;5010601;28;20034;-57
2023/01/17 10:15:34;;;;;;;3.75;2.42;;;4.50;99.90;;;;;;5009824;28;20103;-55
2023/01/17 10:18:41;;;;;;;3.13;2.50;;;4.40;99.90;;;;;;5004874;28;20490;-52
2023/01/17 10:21:33;;;;;;;4.57;2.20;;;4.30;99.90;;;;;;5012824;28;20018;-50
2023/01/17 10:24:58;;;;;;;3.00;2.20;;;4.20;99.90;;;;;;5015658;28;20389;-53
2023/01/17 10:27:55;;;;;;;2.47;1.90;;;4.30;99.90;;;;;;4976448;28;20599;-49
2023/01/17 10:30:57;;;;;;;3.08;2.33;;;4.30;99.90;;;;;;5014619;28;20491;-55
2023/01/17 10:33:51;;;;;;;3.67;2.08;;;4.20;99.90;;;;;;5016591;28;20100;-52
2023/01/17 10:36:43;;;;;;;3.50;2.00;;;4.10;99.90;;;;;;5009036;28;20034;-53
2023/01/17 10:39:30;;;;;;;3.72;2.25;;;4.20;99.90;;;;;;5007363;28;20497;-51
2023/01/17 10:42:23;;;;;;;2.45;2.25;;;4.20;99.90;;;;;;5007550;28;20054;-48
2023/01/17 10:45:19;;;;;;;4.53;2.60;;;4.30;99.90;;;;;;4993855;28;20036;-49
2023/01/17 10:48:17;;;;;;;3.65;2.58;;;4.40;99.90;;;;;;5007944;28;20483;-46
2023/01/17 10:51:28;;;;;;;5.65;2.92;;;4.60;99.90;;;;;;5012058;28;20037;-52
2023/01/17 10:54:50;;;;;;;3.35;2.47;;;4.80;99.90;;;;;;5016919;28;20094;-51
2023/01/17 10:57:40;;;;;;;4.10;2.30;;;4.90;99.90;;;;;;4983564;28;20304;-50
2023/01/17 11:00:29;;;;;;;2.63;2.30;;;5.00;99.90;;;;;;4990808;28;20029;-51
2023/01/17 11:03:18;;;;;;;3.20;2.35;;;4.90;99.90;;;;;;5010014;28;20536;-48
2023/01/17 11:06:16;;;;;;;3.55;2.17;;;4.90;99.90;;;;;;4974134;28;20046;-50
2023/01/17 11:09:04;;;;;;;3.28;2.17;;;5.20;99.90;;;;;;5017638;28;20022;-45
2023/01/17 11:11:50;;;;;;;3.17;2.40;;;5.20;99.90;;;;;;5030465;28;20033;-55
2023/01/17 11:14:36;;;;;;;4.38;2.10;;;5.20;99.90;;;;;;5008733;28;20030;-58
2023/01/17 11:17:23;;;;;;;4.18;2.20;;;5.10;99.90;;;;;;5009594;28;20038;-46
2023/01/17 11:20:22;;;;;;;2.22;2.00;;;5.20;99.90;;;;;;5010320;28;20456;-55
2023/01/17 11:23:14;;;;;;;5.28;2.88;;;5.30;99.90;;;;;;4971047;28;20479;-50
2023/01/17 11:26:03;;;;;;;3.47;2.20;;;5.50;99.90;;;;;;4990986;28;20062;-46
2023/01/17 11:28:51;;;;;;;3.75;2.22;;;5.20;99.90;;;;;;4989924;28;20035;-46
2023/01/17 11:31:37;;;;;;;5.40;2.40;;;5.20;99.90;;;;;;4991523;28;20053;-50
2023/01/17 11:34:25;;;;;;;3.17;2.28;;;5.30;99.90;;;;;;4991834;28;20038;-53
2023/01/17 11:37:19;;;;;;;3.75;2.20;;;5.20;99.90;;;;;;4990023;28;20060;-54
2023/01/17 11:40:17;;;;;;;2.42;1.88;;;5.10;99.90;;;;;;4991958;28;20526;-49
2023/01/17 11:43:25;;;;;;;2.67;2.28;;;4.90;99.90;;;;;;4991651;28;20026;-47
2023/01/17 11:46:22;;;;;;;4.00;2.20;;;4.90;99.90;;;;;;4990815;28;20038;-47
2023/01/17 11:49:24;;;;;;;3.47;2.30;;;5.10;99.90;;;;;;5009581;28;20564;-55
2023/01/17 11:52:30;;;;;;;4.38;2.33;;;5.10;99.90;;;;;;5010415;28;20375;-50
2023/01/17 11:55:17;;;;;;;3.05;2.30;;;5.10;99.90;;;;;;5009858;28;20507;-51
2023/01/17 11:58:03;;;;;;;4.95;2.33;;;5.20;99.90;;;;;;5010156;28;20049;-51
2023/01/17 12:01:18;;;;;;;3.95;2.00;;;5.30;99.90;;;;;;5012236;28;20036;-51
2023/01/17 12:04:27;;;;;;;3.88;2.10;;;5.40;99.90;;;;;;5012638;28;20033;-48
2023/01/17 12:07:22;;;;;;;3.17;2.00;;;5.30;99.90;;;;;;5013810;28;20025;-53
2023/01/17 12:10:24;;;;;;;3.22;1.90;;;5.20;99.90;;;;;;5014441;28;20081;-54
2023/01/17 12:16:42;;;;;;;4.70;2.50;;;5.10;99.90;;;;;;5028034;28;20064;-50
2023/01/17 12:19:31;;;;;;;5.75;2.50;;;4.80;99.90;;;;;;5031435;28;20021;-52
2023/01/17 12:22:28;;;;;;;4.30;2.42;;;4.60;99.90;;;;;;5033061;28;20022;-52
2023/01/17 12:25:42;;;;;;;3.33;2.28;;;4.60;99.90;;;;;;5033452;28;20064;-51
2023/01/17 12:28:56;;;;;;;2.00;1.80;;;4.70;99.90;;;;;;5018699;28;20467;-55
2023/01/17 12:31:54;;;;;;;4.63;2.50;;;4.70;99.90;;;;;;5033351;28;20075;-55
2023/01/17 12:35:12;;;;;;;3.17;2.22;;;4.80;99.90;;;;;;5033705;28;20021;-59
2023/01/17 12:38:09;;;;;;;5.65;2.58;;;4.80;99.90;;;;;;5018158;28;20045;-57
2023/01/17 12:41:05;;;;;;;4.70;2.08;;;4.70;99.90;;;;;;5034165;28;20025;-52
2023/01/17 12:43:56;;;;;;;5.80;2.30;;;5.00;99.90;;;;;;5032983;28;20087;-54
2023/01/17 12:46:55;;;;;;;3.13;2.30;;;5.00;99.90;;;;;;5033196;28;20044;-58
2023/01/17 12:50:04;;;;;;;3.58;2.28;;;5.10;99.90;;;;;;5032077;28;20026;-56
2023/01/17 12:53:10;;;;;;;3.70;2.50;;;5.20;99.90;;;;;;5033305;28;20021;-54
2023/01/17 12:56:06;;;;;;;3.63;2.20;;;5.40;99.90;;;;;;5034237;28;20490;-55
2023/01/17 12:59:11;;;;;;;4.50;2.38;;;5.50;99.90;;;;;;5018384;28;20026;-52
2023/01/17 13:02:00;;;;;;;6.03;2.33;;;5.80;99.60;;;;;;5032246;28;20021;-55
2023/01/17 13:05:26;;;;;;;7.10;2.40;;;5.60;99.30;;;;;;5033196;28;20312;-54
2023/01/17 13:08:50;;;;;;;5.65;2.63;;;5.50;99.60;;;;;;5015891;28;20037;-53
2023/01/17 13:11:45;;;;;;;4.65;2.20;;;5.70;99.00;;;;;;5029413;28;20041;-54
2023/01/17 13:14:31;;;;;;;1.98;1.75;;;5.70;99.00;;;;;;5014030;28;20026;-50
2023/01/17 13:17:49;;;;;;;2.70;2.22;;;5.50;99.40;;;;;;5010804;28;20042;-54
2023/01/17 13:21:04;;;;;;;4.50;2.67;;;5.30;99.80;;;;;;5015396;28;20101;-56
2023/01/17 13:23:58;;;;;;;7.88;2.83;;;5.20;99.90;;;;;;5033102;28;20042;-58
2023/01/17 13:26:50;;;;;;;24.83;12.30;;;4.90;99.90;;;;;;5032105;28;20116;-53
2023/01/17 13:30:14;;;;;;;2.72;2.05;;;4.90;99.90;;;;;;5031045;28;20037;-52
2023/01/17 13:33:06;;;;;;;4.53;2.25;;;4.90;99.50;;;;;;5031101;28;20036;-51
2023/01/17 13:36:06;;;;;;;3.83;2.13;;;5.00;99.50;;;;;;5032477;28;20018;-54
2023/01/17 13:39:18;;;;;;;5.70;2.67;;;5.00;99.80;;;;;;5033043;28;20498;-53
2023/01/17 13:42:25;;;;;;;2.92;2.00;;;5.10;99.90;;;;;;5030743;28;20032;-56
2023/01/17 13:45:20;;;;;;;4.82;2.28;;;5.50;99.70;;;;;;5032041;28;20371;-52
2023/01/17 13:48:13;;;;;;;3.28;2.45;;;5.60;99.50;;;;;;5029890;28;20034;-57
2023/01/17 13:51:10;;;;;;;4.55;2.80;;;5.50;99.70;;;;;;5031089;28;20108;-51
2023/01/17 13:53:56;;;;;;;3.25;2.40;;;5.40;99.90;;;;;;5030432;28;20029;-56
2023/01/17 13:56:42;;;;;;;8.75;2.42;;;5.60;99.90;;;;;;5031370;28;20025;-56
2023/01/17 13:59:29;;;;;;;3.63;2.40;;;5.40;99.90;;;;;;5031775;28;20025;-54
2023/01/17 14:02:34;;;;;;;5.82;2.58;;;5.40;99.90;;;;;;5012053;28;20018;-50
2023/01/17 14:05:30;;;;;;;6.63;2.95;;;5.40;99.90;;;;;;5030809;28;20056;-52
2023/01/17 14:08:19;;;;;;;5.15;2.97;;;5.40;99.90;;;;;;5030418;28;20060;-49
2023/01/17 14:11:07;;;;;;;5.10;2.30;;;5.40;99.60;;;;;;5030365;28;20379;-51
2023/01/17 14:13:54;;;;;;;3.83;2.42;;;5.80;98.80;;;;;;5018463;28;20030;-50
2023/01/17 14:16:39;;;;;;;4.72;2.47;;;6.30;98.40;;;;;;4995398;28;20517;-56
2023/01/17 14:19:26;;;;;;;3.65;2.30;;;6.90;98.80;;;;;;4997562;28;20490;-53
2023/01/17 14:22:17;;;;;;;3.78;2.30;;;8.00;95.70;;;;;;5030341;28;20053;-53
2023/01/17 14:25:18;;;;;;;6.97;2.70;;;8.40;93.60;;;;;;5031548;28;20025;-46
2023/01/17 14:28:22;;;;;;;3.08;2.50;;;8.90;93.40;;;;;;5029979;28;20037;-55
2023/01/17 14:31:09;;;;;;;3.63;2.67;;;9.40;93.00;;;;;;5030304;28;20029;-56
2023/01/17 14:34:11;;;;;;;2.67;2.28;;;10.20;91.30;;;;;;5030287;28;20029;-48
2023/01/17 14:37:26;;;;;;;16.02;3.00;;;9.30;90.70;;;;;;5025378;28;20025;-52
2023/01/17 14:40:21;;;;;;;3.45;2.65;;;7.70;93.30;;;;;;4993081;28;20026;-54
2023/01/17 14:43:12;;;;;;;2.97;2.30;;;6.80;94.80;;;;;;5009448;28;20120;-48
2023/01/17 14:46:02;;;;;;;3.80;2.33;;;6.40;95.40;;;;;;5010884;28;20026;-54
2023/01/17 14:48:51;;;;;;;3.75;2.72;;;6.20;95.80;;;;;;5010804;28;20072;-58
2023/01/17 14:51:37;;;;;;;4.18;2.50;;;6.00;96.00;;;;;;4991324;28;20610;-56
2023/01/17 14:54:23;;;;;;;4.85;2.10;;;5.80;96.60;;;;;;4997549;28;20054;-56
2023/01/17 14:57:28;;;;;;;4.28;2.30;;;5.60;97.00;;;;;;5011009;28;20041;-57
2023/01/17 15:00:18;;;;;;;3.00;2.10;;;5.60;97.20;;;;;;5010956;28;20026;-58
2023/01/17 15:03:13;;;;;;;5.28;2.33;;;5.60;97.20;;;;;;4995686;28;20931;-55
2023/01/17 15:06:09;;;;;;;3.65;2.10;;;5.60;97.10;;;;;;5010359;28;20030;-52
2023/01/17 15:08:56;;;;;;;4.63;2.45;;;5.50;97.30;;;;;;5010215;28;20022;-55
2023/01/17 15:11:43;;;;;;;6.45;2.67;;;5.50;97.50;;;;;;5010115;28;20045;-50
2023/01/17 15:14:33;;;;;;;4.25;2.72;;;5.40;97.70;;;;;;5004534;28;20447;-48
2023/01/17 15:17:23;;;;;;;4.38;2.63;;;5.40;97.90;;;;;;5016067;28;20026;-47
2023/01/17 15:20:13;;;;;;;4.25;2.88;;;5.40;98.00;;;;;;5010348;28;20049;-48
2023/01/17 15:23:00;;;;;;;5.32;2.90;;;5.30;98.30;;;;;;5011963;28;20018;-49
2023/01/17 15:25:49;;;;;;;4.90;2.30;;;5.20;98.60;;;;;;5001110;28;20480;-50
2023/01/17 15:28:35;;;;;;;8.15;2.63;;;5.10;98.60;;;;;;5008430;28;20520;-52
2023/01/17 15:31:44;;;;;;;9.98;4.55;;;5.10;98.90;;;;;;5011618;28;20461;-49
2023/01/17 15:34:35;;;;;;;10.85;4.95;;;5.10;99.00;;;;;;5010401;28;20029;-51
2023/01/17 15:37:35;;;;;;;12.32;5.35;;;5.10;99.10;;;;;;5011248;28;20450;-51
2023/01/17 15:40:23;;;;;;;21.55;8.57;;;5.20;99.10;;;;;;5010722;28;20026;-55
2023/01/17 15:43:19;;;;;;;15.00;6.35;;;5.20;99.10;;;;;;5010602;28;20048;-55
2023/01/17 15:46:05;;;;;;;8.73;3.92;;;5.20;98.90;;;;;;5010884;28;20034;-50
2023/01/17 15:48:52;;;;;;;9.55;4.47;;;5.20;98.90;;;;;;5012053;28;20041;-51
2023/01/17 15:51:38;;;;;;;23.45;11.13;;;5.30;99.50;;;;;;5010454;28;20034;-52
2023/01/17 15:54:35;;;;;;;16.00;6.53;;;5.30;99.40;;;;;;5014177;28;20033;-55
2023/01/17 15:57:34;;;;;;;11.00;5.30;;;5.30;99.30;;;;;;5000664;28;20030;-52
2023/01/17 16:00:23;;;;;;;10.48;5.75;;;5.30;99.20;;;;;;5014856;28;20018;-58
2023/01/17 16:03:25;;;;;;;10.15;6.82;;;5.30;98.80;;;;;;5014346;28;20101;-59
2023/01/17 16:06:29;;;;;;;8.43;5.22;;;5.20;98.70;;;;;;4995623;28;20058;-60
2023/01/17 16:09:22;;;;;;;8.95;5.18;;;5.20;98.80;;;;;;5001139;28;20030;-53
2023/01/17 16:12:08;;;;;;;10.68;5.85;;;5.10;98.80;;;;;;5013029;28;20034;-55
2023/01/17 16:14:54;;;;;;;44.70;23.95;;;5.10;98.80;;;;;;5012800;28;20038;-55
2023/01/17 16:17:46;;;;;;;14.32;9.10;;;5.10;98.80;;;;;;5014061;28;20594;-54
2023/01/17 16:20:43;;;;;;;12.43;7.32;;;5.00;98.80;;;;;;5014494;28;20124;-53
2023/01/17 16:23:29;;;;;;;9.82;5.70;;;5.00;99.00;;;;;;5014314;28;20030;-48
2023/01/17 16:26:15;;;;;;;10.07;5.43;;;5.00;99.00;;;;;;5013724;28;20025;-51
2023/01/17 16:29:01;;;;;;;9.73;4.55;;;5.00;99.10;;;;;;5016355;28;20026;-67
2023/01/17 16:31:47;;;;;;;18.15;9.85;;;5.00;99.10;;;;;;5018261;28;20030;-58
2023/01/17 16:34:34;;;;;;;44.45;24.73;;;5.00;99.20;;;;;;5019338;28;20030;-59